createdAt,value
2019-06-07T00:01:47.959Z,4.47
2019-06-07T00:04:20.797Z,5.07
2019-06-07T00:06:48.378Z,5.30
2019-06-07T00:09:22.096Z,5.47
2019-06-07T00:11:48.907Z,4.73
2019-06-07T00:14:20.844Z,5.53
2019-06-07T00:16:49.219Z,4.87
2019-06-07T00:19:19.088Z,5.30
2019-06-07T00:24:21.853Z,5.30
2019-06-07T00:26:58.319Z,5.00
2019-06-07T00:29:22.235Z,5.13
2019-06-07T00:31:51.867Z,5.23
2019-06-07T00:34:23.166Z,5.40
2019-06-07T00:36:52.353Z,5.17
2019-06-07T00:39:25.355Z,4.93
2019-06-07T00:41:52.617Z,5.07
2019-06-07T00:44:23.468Z,5.30
2019-06-07T00:46:53.731Z,5.30
2019-06-07T00:49:40.050Z,5.03
2019-06-07T00:51:54.254Z,5.33
2019-06-07T00:54:24.995Z,5.50
2019-06-07T00:56:55.498Z,5.37
2019-06-07T00:59:29.609Z,5.20
2019-06-07T01:01:57.414Z,5.60
2019-06-07T01:04:27.259Z,5.23
2019-06-07T01:06:56.730Z,5.40
2019-06-07T01:09:26.374Z,4.80
2019-06-07T01:11:59.222Z,5.00
2019-06-07T01:14:33.486Z,5.67
2019-06-07T01:17:39.179Z,5.63
2019-06-07T01:19:56.293Z,5.80
2019-06-07T01:22:29.076Z,6.07
2019-06-07T01:25:02.175Z,6.53
2019-06-07T01:27:31.595Z,6.30
2019-06-07T01:30:01.087Z,6.33
2019-06-07T01:32:31.700Z,6.27
2019-06-07T01:41:04.826Z,6.23
2019-06-07T01:43:38.843Z,5.83
2019-06-07T01:46:09.604Z,6.80
2019-06-07T01:48:49.309Z,6.47
2019-06-07T01:51:15.921Z,6.93
2019-06-07T01:53:46.806Z,6.50
2019-06-07T01:56:18.584Z,6.20
2019-06-07T01:58:47.847Z,6.40
2019-06-07T02:01:19.186Z,6.10
2019-06-07T02:09:28.423Z,6.30
2019-06-07T02:11:56.806Z,6.77
2019-06-07T02:14:29.822Z,6.50
2019-06-07T02:16:57.466Z,6.37
2019-06-07T02:19:37.569Z,7.27
2019-06-07T02:22:07.013Z,7.23
2019-06-07T02:24:36.748Z,7.00
2019-06-07T02:27:06.222Z,6.80
2019-06-07T02:29:36.072Z,6.80
2019-06-07T02:32:05.511Z,6.70
2019-06-07T02:34:38.655Z,6.43
2019-06-07T02:51:24.437Z,7.00
2019-06-07T02:53:53.755Z,6.50
2019-06-07T03:00:05.523Z,6.47
2019-06-07T03:02:14.831Z,7.07
2019-06-07T03:04:45.082Z,7.50
2019-06-07T03:07:15.090Z,7.90
2019-06-07T03:09:44.771Z,6.53
2019-06-07T03:12:16.207Z,6.87
2019-06-07T03:14:45.592Z,7.27
2019-06-07T03:17:30.451Z,7.67
2019-06-07T03:20:03.033Z,7.30
2019-06-07T03:22:39.909Z,7.60
2019-06-07T03:25:07.611Z,7.63
2019-06-07T03:27:48.601Z,8.13
2019-06-07T03:30:35.860Z,8.10
2019-06-07T03:32:46.832Z,8.00
2019-06-07T03:35:10.742Z,8.00
2019-06-07T03:37:42.669Z,7.67
2019-06-07T03:40:10.922Z,8.70
2019-06-07T03:42:40.284Z,8.20
2019-06-07T03:45:09.475Z,8.67
2019-06-07T03:47:42.075Z,8.30
2019-06-07T03:50:09.753Z,8.30
2019-06-07T03:52:41.268Z,7.90
2019-06-07T03:55:10.007Z,8.33
2019-06-07T03:58:29.364Z,8.03
2019-06-07T04:00:10.536Z,8.30
2019-06-07T04:02:41.990Z,9.07
2019-06-07T04:05:10.976Z,9.20
2019-06-07T04:07:44.337Z,8.73
2019-06-07T04:10:11.710Z,9.43
2019-06-07T04:12:43.962Z,9.33
2019-06-07T04:15:13.247Z,9.90
2019-06-07T04:18:00.767Z,10.27
2019-06-07T04:20:13.605Z,9.93
2019-06-07T04:22:42.975Z,10.20
2019-06-07T04:25:13.128Z,10.53
2019-06-07T04:27:42.374Z,10.93
2019-06-07T04:30:11.909Z,10.63
2019-06-07T04:32:44.815Z,11.30
2019-06-07T04:35:12.258Z,11.20
2019-06-07T04:37:42.768Z,11.03
2019-06-07T04:40:12.384Z,11.90
2019-06-07T04:42:45.364Z,12.60
2019-06-07T04:45:33.065Z,11.37
2019-06-07T04:47:46.520Z,11.57
2019-06-07T04:50:15.790Z,11.33
2019-06-07T04:52:45.826Z,12.40
2019-06-07T04:55:15.238Z,12.00
2019-06-07T04:57:44.478Z,12.50
2019-06-07T05:00:46.673Z,12.03
2019-06-07T05:02:45.350Z,11.73
2019-06-07T05:05:15.076Z,12.57
2019-06-07T05:07:46.208Z,11.93
2019-06-07T05:10:15.809Z,13.53
2019-06-07T05:12:45.007Z,12.27
2019-06-07T05:15:14.713Z,12.27
2019-06-07T05:17:45.208Z,11.97
2019-06-07T05:20:16.050Z,12.40
2019-06-07T05:22:45.711Z,12.43
2019-06-07T05:25:14.957Z,13.93
2019-06-07T05:27:46.900Z,13.67
2019-06-07T05:30:57.811Z,14.03
2019-06-07T05:32:49.420Z,14.43
2019-06-07T05:35:19.091Z,15.43
2019-06-07T05:37:48.295Z,15.60
2019-06-07T05:40:21.642Z,14.77
2019-06-07T05:42:50.962Z,14.60
2019-06-07T05:45:24.604Z,15.10
2019-06-07T05:47:53.834Z,14.73
2019-06-07T05:50:39.031Z,14.70
2019-06-07T05:52:54.381Z,14.70
2019-06-07T05:55:35.328Z,14.40
2019-06-07T05:58:04.671Z,14.57
2019-06-07T06:00:36.357Z,13.77
2019-06-07T06:03:06.273Z,13.80
2019-06-07T06:05:41.629Z,14.10
2019-06-07T06:08:06.962Z,13.57
2019-06-07T06:10:37.625Z,13.30
2019-06-07T06:13:07.532Z,11.93
2019-06-07T06:15:46.385Z,12.40
2019-06-07T06:18:08.865Z,11.23
2019-06-07T06:21:00.965Z,11.70
2019-06-07T06:23:09.152Z,11.60
2019-06-07T06:25:41.593Z,11.27
2019-06-07T06:28:12.039Z,12.03
2019-06-07T06:30:41.214Z,10.97
2019-06-07T06:33:30.746Z,11.37
2019-06-07T06:35:42.574Z,11.57
2019-06-07T06:38:13.318Z,11.00
2019-06-07T06:40:46.528Z,10.03
2019-06-07T06:43:13.871Z,8.63
2019-06-07T06:45:46.879Z,8.23
2019-06-07T06:48:15.565Z,8.73
2019-06-07T06:50:49.007Z,8.27
2019-06-07T06:53:15.814Z,8.70
2019-06-07T06:55:48.483Z,8.37
2019-06-07T06:58:16.064Z,8.00
2019-06-07T07:00:56.874Z,7.53
2019-06-07T07:03:54.292Z,7.73
2019-06-07T07:05:54.602Z,7.80
2019-06-07T07:08:23.708Z,6.67
2019-06-07T07:10:54.916Z,7.07
2019-06-07T07:13:23.952Z,6.40
2019-06-07T07:15:57.831Z,7.03
2019-06-07T07:18:24.157Z,6.43
2019-06-07T07:20:56.857Z,6.73
2019-06-07T07:23:24.419Z,6.10
2019-06-07T07:25:59.507Z,6.47
2019-06-07T07:28:24.728Z,6.67
2019-06-07T07:30:56.976Z,6.50
2019-06-07T07:33:26.095Z,6.33
2019-06-07T07:36:15.634Z,6.43
2019-06-07T07:38:26.413Z,5.73
2019-06-07T07:41:06.729Z,5.47
2019-06-07T07:43:26.632Z,5.30
2019-06-07T07:46:02.187Z,5.10
2019-06-07T07:48:27.058Z,5.80
2019-06-07T07:51:00.586Z,4.97
2019-06-07T07:53:45.393Z,5.57
2019-06-07T07:56:00.047Z,5.67
2019-06-07T07:58:29.739Z,5.63
2019-06-07T08:01:09.796Z,5.73
2019-06-07T08:03:30.669Z,5.60
2019-06-07T08:06:00.330Z,5.07
2019-06-07T08:08:29.697Z,5.47
2019-06-07T08:11:01.790Z,4.63
2019-06-07T08:13:29.942Z,4.77
2019-06-07T08:16:05.039Z,4.83
2019-06-07T08:18:30.112Z,5.57
2019-06-07T08:21:15.001Z,5.37
2019-06-07T08:23:30.289Z,4.77
2019-06-07T08:26:01.046Z,5.00
2019-06-07T08:28:30.942Z,4.73
2019-06-07T08:31:06.295Z,4.93
2019-06-07T08:33:31.210Z,5.40
2019-06-07T08:36:13.925Z,5.00
2019-06-07T08:38:47.114Z,4.70
2019-06-07T08:41:11.465Z,4.53
2019-06-07T08:43:33.731Z,4.27
2019-06-07T08:46:07.461Z,4.37
2019-06-07T08:48:33.937Z,4.90
2019-06-07T08:51:08.299Z,4.30
2019-06-07T08:53:34.589Z,4.30
2019-06-07T08:56:09.837Z,4.17
2019-06-07T08:58:34.775Z,4.30
2019-06-07T09:01:08.311Z,4.43
2019-06-07T09:03:35.180Z,3.90
2019-06-07T09:06:16.119Z,4.70
2019-06-07T09:08:35.519Z,4.20
2019-06-07T09:11:10.607Z,4.57
2019-06-07T09:13:36.158Z,4.03
2019-06-07T09:16:08.636Z,4.33
2019-06-07T09:18:42.691Z,4.13
2019-06-07T09:21:09.613Z,4.00
2019-06-07T09:23:38.335Z,4.10
2019-06-07T09:26:16.581Z,3.40
2019-06-07T09:28:38.700Z,3.97
2019-06-07T09:31:10.533Z,4.00
2019-06-07T09:33:39.095Z,3.60
2019-06-07T09:36:12.535Z,3.87
2019-06-07T09:38:39.638Z,3.47
2019-06-07T09:41:47.527Z,3.80
2019-06-07T09:44:21.397Z,3.70
2019-06-07T09:46:42.885Z,3.83
2019-06-07T09:49:28.293Z,3.97
2019-06-07T09:51:46.453Z,3.60
2019-06-07T09:55:02.265Z,3.50
2019-06-07T09:56:47.299Z,4.07
2019-06-07T09:59:16.601Z,3.83
2019-06-07T10:01:47.739Z,4.13
2019-06-07T10:04:30.817Z,3.77
2019-06-07T10:06:49.551Z,3.80
2019-06-07T10:11:50.309Z,3.90
2019-06-07T10:14:20.849Z,3.50
2019-06-07T10:16:51.428Z,3.23
2019-06-07T10:19:21.586Z,3.80
2019-06-07T10:21:51.630Z,3.90
2019-06-07T10:24:21.361Z,3.30
2019-06-07T10:26:51.372Z,3.60
2019-06-07T10:29:20.685Z,3.70
2019-06-07T10:31:53.780Z,3.17
2019-06-07T10:34:24.889Z,3.80
2019-06-07T10:36:56.291Z,3.70
2019-06-07T10:39:27.051Z,3.80
2019-06-07T10:41:56.731Z,3.77
2019-06-07T10:44:26.128Z,3.70
2019-06-07T10:46:59.145Z,3.30
2019-06-07T10:49:27.458Z,3.37
2019-06-07T10:51:56.826Z,3.17
2019-06-07T10:54:30.523Z,3.40
2019-06-07T10:56:57.239Z,2.93
2019-06-07T10:59:26.582Z,3.23
2019-06-07T11:01:55.782Z,3.40
2019-06-07T11:04:25.387Z,2.90
2019-06-07T11:06:54.576Z,3.07
2019-06-07T11:09:23.824Z,3.00
2019-06-07T11:11:53.056Z,2.60
2019-06-07T11:14:22.284Z,2.97
2019-06-07T11:16:51.618Z,2.70
2019-06-07T11:19:21.174Z,2.80
2019-06-07T11:21:50.362Z,2.90
2019-06-07T11:24:24.417Z,2.90
2019-06-07T11:26:50.589Z,2.70
2019-06-07T11:29:20.101Z,3.03
2019-06-07T11:31:49.292Z,2.90
2019-06-07T11:34:18.910Z,2.50
2019-06-07T11:36:51.049Z,2.10
2019-06-07T11:39:19.472Z,2.50
2019-06-07T11:41:48.705Z,2.53
2019-06-07T11:44:17.917Z,2.20
2019-06-07T11:46:47.122Z,2.23
2019-06-07T11:49:20.417Z,2.67
2019-06-07T11:51:47.334Z,2.43
2019-06-07T11:54:20.106Z,2.67
2019-06-07T11:56:47.506Z,2.90
2019-06-07T11:59:17.476Z,2.90
2019-06-07T12:01:46.810Z,2.87
2019-06-07T12:04:33.850Z,2.37
2019-06-07T12:06:47.028Z,2.80
2019-06-07T12:09:16.863Z,2.67
2019-06-07T12:11:46.409Z,2.50
2019-06-07T12:14:23.811Z,2.70
2019-06-07T12:16:53.075Z,2.50
2019-06-07T12:19:22.345Z,2.70
2019-06-07T12:21:51.561Z,2.93
2019-06-07T12:24:21.199Z,2.50
2019-06-07T12:26:50.560Z,2.60
2019-06-07T12:29:21.071Z,2.87
2019-06-07T12:31:50.392Z,2.73
2019-06-07T12:34:20.008Z,3.10
2019-06-07T12:36:49.239Z,2.93
2019-06-07T12:39:18.540Z,2.83
2019-06-07T12:41:47.818Z,2.60
2019-06-07T12:44:18.520Z,2.90
2019-06-07T12:46:47.935Z,2.67
2019-06-07T12:49:17.190Z,2.87
2019-06-07T12:51:46.761Z,2.83
2019-06-07T12:54:15.977Z,2.70
2019-06-07T12:56:45.284Z,2.77
2019-06-07T12:59:15.879Z,2.67
2019-06-07T13:01:45.175Z,2.80
2019-06-07T13:04:14.465Z,2.73
2019-06-07T13:06:43.671Z,2.80
2019-06-07T13:09:12.858Z,2.80
2019-06-07T13:11:42.461Z,2.62
2019-06-07T13:14:12.034Z,2.45
2019-06-07T13:16:41.304Z,2.40
2019-06-07T13:19:10.570Z,2.65
2019-06-07T13:21:39.790Z,3.55
2019-06-07T13:24:08.990Z,2.50
2019-06-07T13:26:38.240Z,2.83
2019-06-07T13:29:07.463Z,2.50
2019-06-07T13:31:36.698Z,2.50
2019-06-07T13:34:05.965Z,2.50
2019-06-07T13:36:35.181Z,2.42
2019-06-07T13:39:05.133Z,2.75
2019-06-07T13:41:42.435Z,2.47
2019-06-07T13:44:05.323Z,3.05
2019-06-07T13:46:34.541Z,2.60
2019-06-07T13:49:03.765Z,2.75
2019-06-07T13:51:33.467Z,2.60
2019-06-07T13:54:03.228Z,2.20
2019-06-07T13:56:32.479Z,2.67
2019-06-07T13:59:01.675Z,2.83
2019-06-07T14:01:30.907Z,2.60
2019-06-07T14:04:00.403Z,2.62
2019-06-07T14:06:30.303Z,2.60
2019-06-07T14:08:59.662Z,2.20
2019-06-07T14:11:31.488Z,2.62
2019-06-07T14:13:59.829Z,2.50
2019-06-07T14:16:30.415Z,2.52
2019-06-07T14:18:59.692Z,2.55
2019-06-07T14:21:29.157Z,2.47
2019-06-07T14:23:58.405Z,2.58
2019-06-07T14:26:27.591Z,2.60
2019-06-07T14:28:57.188Z,2.30
2019-06-07T14:31:26.426Z,2.47
2019-06-07T14:33:55.767Z,2.72
2019-06-07T14:36:24.975Z,2.27
2019-06-07T14:38:54.287Z,2.43
2019-06-07T14:41:25.167Z,2.80
2019-06-07T14:43:54.681Z,2.87
2019-06-07T14:46:25.694Z,2.63
2019-06-07T14:48:55.057Z,2.57
2019-06-07T14:51:24.292Z,2.73
2019-06-07T14:53:53.749Z,2.63
2019-06-07T14:56:22.957Z,2.70
2019-06-07T14:58:52.676Z,2.63
2019-06-07T15:01:22.055Z,2.27
2019-06-07T15:03:52.870Z,2.50
2019-06-07T15:06:26.779Z,2.87
2019-06-07T15:08:59.764Z,2.40
2019-06-07T15:11:33.120Z,2.60
2019-06-07T15:14:02.822Z,2.40
2019-06-07T15:16:33.740Z,2.57
2019-06-07T15:19:03.716Z,3.60
2019-06-07T15:21:34.999Z,4.07
2019-06-07T15:24:04.925Z,3.87
2019-06-07T15:26:34.835Z,2.90
2019-06-07T15:29:05.256Z,3.90
2019-06-07T15:31:36.603Z,3.77
2019-06-07T15:34:05.732Z,3.20
2019-06-07T15:36:36.380Z,2.73
2019-06-07T15:39:08.679Z,2.80
2019-06-07T15:41:39.933Z,2.60
2019-06-07T15:44:09.645Z,2.90
2019-06-07T15:46:40.116Z,2.60
2019-06-07T15:49:12.701Z,3.03
2019-06-07T15:51:42.454Z,3.20
2019-06-07T15:54:12.239Z,2.77
2019-06-07T15:56:43.181Z,2.53
2019-06-07T15:59:19.146Z,2.20
2019-06-07T16:01:57.713Z,1.83
2019-06-07T16:04:37.681Z,1.20
2019-06-07T16:07:08.733Z,1.43
2019-06-07T16:09:42.707Z,1.73
2019-06-07T16:12:13.943Z,1.53
2019-06-07T16:14:43.935Z,1.60
2019-06-07T16:17:24.398Z,1.00
2019-06-07T16:20:02.426Z,0.93
2019-06-07T16:22:33.426Z,0.70
2019-06-07T16:25:02.836Z,0.60
2019-06-07T16:27:31.991Z,0.90
2019-06-07T16:30:08.796Z,0.90
2019-06-07T16:32:41.824Z,0.60
2019-06-07T16:35:25.931Z,0.77
2019-06-07T16:37:55.309Z,0.70
2019-06-07T16:40:25.909Z,0.53
2019-06-07T16:42:56.390Z,0.70
2019-06-07T16:45:25.613Z,0.83
2019-06-07T16:47:58.034Z,0.60
2019-06-07T16:50:27.298Z,0.50
2019-06-07T16:52:56.528Z,0.50
2019-06-07T16:55:26.434Z,0.77
2019-06-07T16:57:55.832Z,0.60
2019-06-07T17:00:25.450Z,0.73
2019-06-07T17:02:56.983Z,0.80
2019-06-07T17:05:26.264Z,0.70
2019-06-07T17:07:55.504Z,0.70
2019-06-07T17:10:25.052Z,0.80
2019-06-07T17:12:54.284Z,0.80
2019-06-07T17:15:23.648Z,0.90
2019-06-07T17:17:53.148Z,0.80
2019-06-07T17:20:22.804Z,0.57
2019-06-07T17:22:52.692Z,0.60
2019-06-07T17:25:22.285Z,0.87
2019-06-07T17:27:51.704Z,0.50
2019-06-07T17:30:21.041Z,0.93
2019-06-07T17:32:58.921Z,0.90
2019-06-07T17:35:21.757Z,0.40
2019-06-07T17:37:51.548Z,0.50
2019-06-07T17:40:22.010Z,1.00
2019-06-07T17:42:57.121Z,0.67
2019-06-07T17:45:26.420Z,0.60
2019-06-07T17:47:55.806Z,0.50
2019-06-07T17:50:25.023Z,0.80
2019-06-07T17:52:54.725Z,0.97
2019-06-07T17:55:23.965Z,0.80
2019-06-07T17:57:53.233Z,0.90
2019-06-07T18:00:28.464Z,1.00
2019-06-07T18:02:54.971Z,1.07
2019-06-07T18:05:24.322Z,0.70
2019-06-07T18:07:54.006Z,0.90
2019-06-07T18:10:50.053Z,1.03
2019-06-07T18:13:19.401Z,0.97
2019-06-07T18:15:53.878Z,0.77
2019-06-07T18:18:20.702Z,1.30
2019-06-07T18:20:51.505Z,1.00
2019-06-07T18:23:21.327Z,0.80
2019-06-07T18:25:50.652Z,0.90
2019-06-07T18:28:20.252Z,0.67
2019-06-07T18:30:52.736Z,0.90
2019-06-07T18:33:22.484Z,0.57
2019-06-07T18:35:55.300Z,1.37
2019-06-07T18:38:28.042Z,1.23
2019-06-07T18:40:59.497Z,1.50
2019-06-07T18:43:30.272Z,1.60
2019-06-07T18:46:01.759Z,1.90
2019-06-07T18:48:31.552Z,1.50
2019-06-07T18:51:01.174Z,1.20
2019-06-07T18:53:30.962Z,1.17
2019-06-07T18:56:01.090Z,1.57
2019-06-07T18:58:31.388Z,1.77
2019-06-07T19:01:01.250Z,1.60
2019-06-07T19:03:32.568Z,1.20
2019-06-07T19:06:02.220Z,1.30
2019-06-07T19:08:34.889Z,1.63
2019-06-07T19:11:04.866Z,1.90
2019-06-07T19:13:38.948Z,1.80
2019-06-07T19:16:08.747Z,2.13
2019-06-07T19:18:38.400Z,1.60
2019-06-07T19:21:09.100Z,1.60
2019-06-07T19:23:40.020Z,1.50
2019-06-07T19:26:09.558Z,2.50
2019-06-07T19:28:40.736Z,2.60
2019-06-07T19:31:10.417Z,2.70
2019-06-07T19:33:48.751Z,2.47
2019-06-07T19:36:12.134Z,2.50
2019-06-07T19:38:42.267Z,2.50
2019-06-07T19:41:19.156Z,2.50
2019-06-07T19:43:43.342Z,2.80
2019-06-07T19:46:12.877Z,2.50
2019-06-07T19:48:42.619Z,2.40
2019-06-07T19:51:12.330Z,2.20
2019-06-07T19:53:41.961Z,2.50
2019-06-07T19:56:11.989Z,2.87
2019-06-07T19:58:42.323Z,2.47
2019-06-07T20:01:12.144Z,2.37
2019-06-07T20:03:42.086Z,2.80
2019-06-07T20:06:11.711Z,2.23
2019-06-07T20:08:41.576Z,2.83
2019-06-07T20:11:11.206Z,2.60
2019-06-07T20:13:41.303Z,2.50
2019-06-07T20:16:10.811Z,2.57
2019-06-07T20:18:40.743Z,2.60
2019-06-07T20:21:10.584Z,2.40
2019-06-07T20:23:40.446Z,2.53
2019-06-07T20:26:11.020Z,2.40
2019-06-07T20:28:40.895Z,2.73
2019-06-07T20:31:10.401Z,2.60
2019-06-07T20:33:40.547Z,2.43
2019-06-07T20:36:10.990Z,2.70
2019-06-07T20:38:41.164Z,2.60
2019-06-07T20:41:10.795Z,2.87
2019-06-07T20:43:40.595Z,2.67
2019-06-07T20:46:21.486Z,2.60
2019-06-07T20:48:51.203Z,2.50
2019-06-07T20:51:20.492Z,2.57
2019-06-07T20:53:50.064Z,2.70
2019-06-07T20:56:19.400Z,2.70
2019-06-07T20:58:49.432Z,2.50
2019-06-07T21:01:18.986Z,2.80
2019-06-07T21:03:48.626Z,3.00
2019-06-07T21:06:18.450Z,2.70
2019-06-07T21:08:47.676Z,1.00
2019-06-07T21:11:17.325Z,1.23
2019-06-07T21:13:46.585Z,1.10
2019-06-07T21:16:17.101Z,1.17
2019-06-07T21:18:46.334Z,1.03
2019-06-07T21:21:15.570Z,0.80
2019-06-07T21:23:44.788Z,0.90
2019-06-07T21:26:16.568Z,1.70
2019-06-07T21:28:45.790Z,1.20
2019-06-07T21:31:15.051Z,1.20
2019-06-07T21:33:48.478Z,1.40
2019-06-07T21:36:17.807Z,1.07
2019-06-07T21:38:47.051Z,1.07
2019-06-07T21:41:16.359Z,1.13
2019-06-07T21:43:45.873Z,1.00
2019-06-07T21:46:20.594Z,1.20
2019-06-07T21:48:46.875Z,1.23
2019-06-07T21:51:16.407Z,1.30
2019-06-07T21:53:45.641Z,1.33
2019-06-07T21:56:14.917Z,1.00
2019-06-07T21:58:44.118Z,1.13
2019-06-07T22:01:20.301Z,1.20
2019-06-07T22:03:49.527Z,1.50
2019-06-07T22:06:20.326Z,1.30
2019-06-07T22:08:49.580Z,1.30
2019-06-07T22:11:18.843Z,1.13
2019-06-07T22:13:48.110Z,1.27
2019-06-07T22:16:28.464Z,1.20
2019-06-07T22:18:50.934Z,1.23
2019-06-07T22:21:20.141Z,1.00
2019-06-07T22:23:49.430Z,1.00
2019-06-07T22:26:18.626Z,1.50
2019-06-07T22:28:48.726Z,1.10
2019-06-07T22:31:19.283Z,0.80
2019-06-07T22:33:49.356Z,1.17
2019-06-07T22:36:20.291Z,1.10
2019-06-07T22:38:49.811Z,1.17
2019-06-07T22:41:19.102Z,1.40
2019-06-07T22:43:48.328Z,0.97
2019-06-07T22:46:17.522Z,0.93
2019-06-07T22:48:46.775Z,1.87
2019-06-07T22:51:16.478Z,1.07
2019-06-07T22:53:45.824Z,0.70
2019-06-07T22:56:50.836Z,1.47
2019-06-07T22:59:20.585Z,1.10
2019-06-07T23:01:50.227Z,1.37
2019-06-07T23:04:19.477Z,1.30
2019-06-07T23:06:48.669Z,0.93
2019-06-07T23:09:19.779Z,0.97
2019-06-07T23:11:49.071Z,0.90
2019-06-07T23:14:19.509Z,1.30
2019-06-07T23:16:55.283Z,1.40
2019-06-07T23:19:20.443Z,1.00
2019-06-07T23:21:49.770Z,1.40
2019-06-07T23:24:21.567Z,1.33
2019-06-07T23:26:50.783Z,1.00
2019-06-07T23:29:20.709Z,1.37
2019-06-07T23:31:50.036Z,0.70
2019-06-07T23:34:19.325Z,0.70
2019-06-07T23:36:48.559Z,1.10
2019-06-07T23:39:20.422Z,1.03
2019-06-07T23:41:48.723Z,0.90
2019-06-07T23:44:17.939Z,1.20
2019-06-07T23:46:47.316Z,0.90
2019-06-07T23:49:17.606Z,1.23
2019-06-07T23:51:46.916Z,1.20
2019-06-07T23:54:16.152Z,0.70
2019-06-07T23:56:45.350Z,1.13
2019-06-07T23:59:14.596Z,1.07
